White Hall, Virginia
Current Conditions -  °F | °C
As of 3:53 PM on Friday 31 Oct 2014 (Local Time) from KCHO Reporting Station
Overcast Overcast  
Wind Chill: 55°   Ceiling: 6000
Heat Index: 55°   Visibility: 10mi
Dew Point: 35°   Wind: 3mph
Humidity: 47%   Direction: 90°E
Pressure: 29.84"   Gusts: NA
Location:  38.12°N, 78.66°W
Report Text: KCHO 311953Z 09003KT 10SM OVC060 13/02 A2984 RMK AO2 SLP105 T01280017
Loading
Personal Weather Stations






























Interactive Weather Map
Tropical Storm Tracking
New forecast layout! Learn more

10-Day Weather Forecast

Advertisements
Track Severe Weather on mobile